Terminal Aerodrome Forecast
Issued by NWS Cleveland, OH

Home | Current Version | Previous Version | Text Only | Print | Product List | Glossary On
Versions: 1 2 3 4 5 6 7 8 9 10 11 12 13 14 15 16 17 18 19 20
536
FTUS41 KCLE 011850 AAA
TAFYNG
TAF AMD
KYNG 011850Z 0119/0218 28007KT P6SM VCTS SCT015CB BKN035
      TEMPO 0119/0122 BKN015CB
     FM012200 35006KT 3SM BR BKN008 OVC012
     FM020500 03004KT 2SM -SHRA VCTS OVC005CB
     FM021200 31007KT 1SM BR OVC003=

USA.gov is the U.S. government's official web portal to all federal, state and local government web resources and services.